Time;durP1;ratioP1;P1;durP2;ratioP2;P2;SDS_P1;SDS_P2;PMS_P1;PMS_P2;Temp;Humidity;BMP_temperature;BMP_pressure;BME280_temperature;BME280_humidity;BME280_pressure;Samples;Min_cycle;Max_cycle;Signal;HPM_P1;HPM_P2
2022/10/20 00:00:55;;;;;;;9.90;6.18;;;;;;;9.03;100.00;101728.34;5093008;28;20032;-35
2022/10/20 00:03:21;;;;;;;12.40;6.78;;;;;;;8.98;100.00;101725.41;5093022;28;20052;-35
2022/10/20 00:05:46;;;;;;;;;;;;;;;9.05;100.00;101725.44;5094224;28;20036;-35
2022/10/20 00:08:12;;;;;;;11.05;5.85;;;;;;;8.93;100.00;101700.03;5093739;28;19912;-36
2022/10/20 00:10:37;;;;;;;12.77;6.47;;;;;;;8.96;100.00;101708.56;5093136;28;20024;-36
2022/10/20 00:13:02;;;;;;;10.00;6.90;;;;;;;8.94;100.00;101697.16;5092953;28;20387;-35
2022/10/20 00:15:28;;;;;;;9.50;6.23;;;;;;;8.96;100.00;101695.06;5092843;28;20040;-36
2022/10/20 00:17:53;;;;;;;9.40;6.30;;;;;;;8.97;100.00;101688.63;5093692;28;20024;-36
2022/10/20 00:20:19;;;;;;;7.78;6.65;;;;;;;8.91;100.00;101683.22;5092933;28;20089;-35
2022/10/20 00:22:44;;;;;;;13.38;6.90;;;;;;;8.95;100.00;101688.03;5092880;28;20062;-36
2022/10/20 00:25:10;;;;;;;12.47;6.53;;;;;;;8.92;100.00;101679.47;5092958;28;20043;-35
2022/10/20 00:27:35;;;;;;;11.43;6.90;;;;;;;8.93;100.00;101684.69;5093382;28;20403;-35
2022/10/20 00:30:00;;;;;;;10.03;6.63;;;;;;;8.93;100.00;101683.84;5093112;28;20028;-35
2022/10/20 00:32:26;;;;;;;10.63;6.63;;;;;;;8.84;100.00;101666.19;5093227;28;20383;-35
2022/10/20 00:34:51;;;;;;;10.27;6.70;;;;;;;8.90;100.00;101679.69;5092958;28;20024;-36
2022/10/20 00:37:16;;;;;;;11.00;6.47;;;;;;;8.89;100.00;101683.44;5093016;28;20020;-35
2022/10/20 00:39:42;;;;;;;10.40;7.10;;;;;;;8.88;100.00;101675.53;5092740;28;20413;-36
2022/10/20 00:42:13;;;;;;;12.67;6.47;;;;;;;8.90;100.00;101677.00;5093351;28;20032;-36
2022/10/20 00:44:50;;;;;;;9.23;6.65;;;;;;;8.81;100.00;101670.09;5093226;28;20039;-35
2022/10/20 00:47:19;;;;;;;10.68;6.18;;;;;;;8.89;100.00;101664.56;5093076;28;20115;-36
2022/10/20 00:49:46;;;;;;;10.70;6.72;;;;;;;8.86;100.00;101645.22;5093203;28;20081;-36
2022/10/20 00:52:12;;;;;;;9.23;6.00;;;;;;;8.89;100.00;101656.47;5093763;28;20456;-35
2022/10/20 00:54:37;;;;;;;8.23;6.18;;;;;;;8.90;100.00;101659.97;5096526;28;20024;-36
2022/10/20 00:57:03;;;;;;;11.55;6.63;;;;;;;8.89;100.00;101651.06;5097209;28;20056;-35
2022/10/20 00:59:34;;;;;;;11.73;6.90;;;;;;;8.86;100.00;101640.66;5096739;28;20028;-35
2022/10/20 01:02:03;;;;;;;10.75;7.63;;;;;;;8.81;100.00;101632.34;5096465;28;20032;-35
2022/10/20 01:04:30;;;;;;;13.95;7.45;;;;;;;8.84;100.00;101639.22;5095559;28;20483;-36
2022/10/20 01:06:56;;;;;;;9.20;6.28;;;;;;;8.85;100.00;101636.31;5096367;28;20126;-36
2022/10/20 01:09:22;;;;;;;;;;;;;;;8.90;100.00;101631.16;5096682;28;20472;-35
2022/10/20 01:11:58;;;;;;;8.75;6.55;;;;;;;8.90;100.00;101633.00;5096197;28;19919;-35
2022/10/20 01:14:42;;;;;;;9.40;7.15;;;;;;;8.86;100.00;101640.66;5096647;28;20028;-35
2022/10/20 01:17:25;;;;;;;8.95;6.80;;;;;;;8.85;100.00;101638.19;5096834;28;20024;-36
2022/10/20 01:20:08;;;;;;;10.35;6.85;;;;;;;8.81;100.00;101621.56;5096694;28;20070;-35
2022/10/20 01:23:01;;;;;;;11.38;6.80;;;;;;;8.82;100.00;101620.50;5096390;28;20415;-35
2022/10/20 01:25:48;;;;;;;8.23;6.60;;;;;;;8.80;100.00;101611.81;5096749;28;20059;-35
2022/10/20 01:28:17;;;;;;;10.02;6.95;;;;;;;8.79;100.00;101604.75;5096473;28;20414;-35
2022/10/20 01:30:52;;;;;;;11.55;7.25;;;;;;;8.76;100.00;101597.06;5096717;28;20028;-35
2022/10/20 01:33:28;;;;;;;12.45;7.50;;;;;;;8.73;100.00;101592.06;5096616;28;20035;-35
2022/10/20 01:36:02;;;;;;;12.80;6.80;;;;;;;8.73;100.00;101583.97;5095799;28;20087;-35
2022/10/20 01:38:47;;;;;;;8.55;7.22;;;;;;;8.73;100.00;101579.41;5095813;28;20079;-35
2022/10/20 01:41:16;;;;;;;11.73;7.43;;;;;;;8.70;100.00;101570.91;5096702;28;20028;-35
2022/10/20 01:43:44;;;;;;;13.30;7.90;;;;;;;8.74;100.00;101578.38;5095696;28;20028;-36
2022/10/20 01:46:11;;;;;;;9.15;7.25;;;;;;;8.72;100.00;101579.59;5095898;28;20472;-35
2022/10/20 01:48:39;;;;;;;13.02;8.35;;;;;;;8.71;100.00;101567.16;5095823;28;20456;-35
2022/10/20 01:51:05;;;;;;;11.90;8.05;;;;;;;8.71;100.00;101564.47;5095521;28;20508;-35
2022/10/20 01:53:30;;;;;;;9.82;7.35;;;;;;;8.72;100.00;101560.72;5096055;28;20114;-35
2022/10/20 01:55:58;;;;;;;12.17;7.60;;;;;;;8.74;100.00;101566.78;5095495;28;20373;-35
2022/10/20 01:58:27;;;;;;;9.45;7.57;;;;;;;8.67;100.00;101565.91;5096184;28;20056;-36
2022/10/20 02:00:56;;;;;;;11.77;7.15;;;;;;;8.70;100.00;101587.91;5095576;28;20031;-35
2022/10/20 02:03:43;;;;;;;10.60;6.78;;;;;;;8.73;100.00;101586.66;5095874;28;20028;-35
2022/10/20 02:06:44;;;;;;;11.02;8.15;;;;;;;8.76;100.00;101586.25;5095525;28;20050;-35
2022/10/20 02:09:22;;;;;;;12.15;7.97;;;;;;;8.73;100.00;101579.41;5072935;28;20048;-35
2022/10/20 02:12:00;;;;;;;10.07;7.20;;;;;;;8.69;100.00;101567.38;5073241;28;20064;-35
2022/10/20 02:14:25;;;;;;;11.00;8.45;;;;;;;8.69;100.00;101561.16;5073319;28;20098;-35
2022/10/20 02:16:58;;;;;;;9.68;7.47;;;;;;;8.66;100.00;101556.16;5072828;28;20033;-35
2022/10/20 02:19:28;;;;;;;8.98;7.53;;;;;;;8.63;100.00;101561.94;5073105;28;20044;-36
2022/10/20 02:21:56;;;;;;;12.85;8.30;;;;;;;8.62;100.00;101554.88;5072531;28;20035;-35
2022/10/20 02:24:28;;;;;;;11.77;7.90;;;;;;;8.57;100.00;101544.69;5072714;28;20037;-36
2022/10/20 02:26:58;;;;;;;13.25;7.85;;;;;;;8.60;100.00;101555.09;5073045;28;20106;-35
2022/10/20 02:29:28;;;;;;;12.27;8.00;;;;;;;8.57;100.00;101544.69;5072447;28;20051;-36
2022/10/20 02:31:54;;;;;;;11.90;7.78;;;;;;;8.57;100.00;101538.47;5072500;28;20060;-35
2022/10/20 02:34:19;;;;;;;15.20;8.25;;;;;;;8.54;100.00;101522.69;5072807;28;20052;-35
2022/10/20 02:36:44;;;;;;;12.83;7.70;;;;;;;8.56;100.00;101531.44;5072764;28;20043;-35
2022/10/20 02:39:10;;;;;;;12.93;8.50;;;;;;;8.55;100.00;101532.47;5072251;28;20265;-35
2022/10/20 02:41:36;;;;;;;13.88;8.00;;;;;;;8.55;100.00;101521.69;5072076;28;20025;-36
2022/10/20 02:44:02;;;;;;;11.63;8.52;;;;;;;8.55;100.00;101508.22;5072583;28;20047;-35
2022/10/20 02:46:27;;;;;;;13.93;8.93;;;;;;;8.51;100.00;101508.59;5088713;28;20538;-35
2022/10/20 02:48:53;;;;;;;13.17;9.00;;;;;;;8.50;100.00;101503.41;5094974;28;20024;-35
2022/10/20 02:51:18;;;;;;;14.18;9.27;;;;;;;8.50;100.00;101490.75;5094539;28;20035;-36
2022/10/20 02:53:44;;;;;;;15.33;9.37;;;;;;;8.52;100.00;101490.56;5095273;28;20157;-35
2022/10/20 02:56:10;;;;;;;11.63;8.98;;;;;;;8.52;100.00;101475.22;5094289;28;20274;-35
2022/10/20 02:58:35;;;;;;;11.60;9.50;;;;;;;8.52;100.00;101482.47;5094210;28;20024;-35
2022/10/20 03:01:01;;;;;;;13.90;9.65;;;;;;;8.58;100.00;101475.44;5094443;28;20440;-36
2022/10/20 03:03:26;;;;;;;15.13;10.75;;;;;;;8.58;100.00;101453.88;5094869;28;20040;-35
2022/10/20 03:05:52;;;;;;;14.37;10.43;;;;;;;8.58;100.00;101457.38;5094447;28;20478;-35
2022/10/20 03:08:17;;;;;;;11.60;10.00;;;;;;;8.49;100.00;101440.59;5094735;28;20118;-36
2022/10/20 03:10:43;;;;;;;11.63;9.40;;;;;;;8.57;100.00;101447.66;5093065;28;20032;-36
2022/10/20 03:13:09;;;;;;;12.88;10.18;;;;;;;8.56;100.00;101445.16;5094345;28;20117;-35
2022/10/20 03:15:35;;;;;;;12.98;10.35;;;;;;;8.59;100.00;101442.03;5093503;28;20027;-36
2022/10/20 03:18:00;;;;;;;12.70;10.82;;;;;;;8.51;100.00;101438.50;5093845;28;20032;-36
2022/10/20 03:20:25;;;;;;;13.20;10.37;;;;;;;8.60;100.00;101446.44;5094068;28;20032;-36
2022/10/20 03:22:51;;;;;;;13.30;10.50;;;;;;;8.59;100.00;101433.97;5093733;28;20044;-36
2022/10/20 03:25:16;;;;;;;13.77;10.07;;;;;;;8.63;100.00;101425.25;5093897;28;20020;-35
2022/10/20 03:27:41;;;;;;;16.38;10.88;;;;;;;8.62;100.00;101422.78;5093912;28;20031;-36
2022/10/20 03:30:07;;;;;;;17.80;11.90;;;;;;;8.46;100.00;101391.66;5094616;28;20028;-35
2022/10/20 03:32:32;;;;;;;14.93;11.25;;;;;;;8.64;100.00;101416.16;5094295;28;20031;-36
2022/10/20 03:34:58;;;;;;;12.77;10.50;;;;;;;8.67;100.00;101423.81;5093530;28;20027;-36
2022/10/20 03:37:23;;;;;;;16.77;11.30;;;;;;;8.63;100.00;101411.78;5093489;28;20020;-36
2022/10/20 03:39:48;;;;;;;12.33;10.33;;;;;;;8.60;100.00;101390.63;5093679;28;20081;-36
2022/10/20 03:42:14;;;;;;;14.33;10.93;;;;;;;8.69;100.00;101410.16;5094165;28;20024;-36
2022/10/20 03:44:39;;;;;;;17.83;11.32;;;;;;;8.73;100.00;101406.00;5093549;28;20035;-36
2022/10/20 03:47:05;;;;;;;13.03;9.93;;;;;;;8.72;100.00;101401.63;5093572;28;20044;-36
2022/10/20 03:49:32;;;;;;;13.23;11.43;;;;;;;8.77;100.00;101404.53;5093431;28;20027;-36
2022/10/20 03:51:57;;;;;;;14.65;11.18;;;;;;;8.76;100.00;101402.91;5093831;28;20112;-36
2022/10/20 03:54:23;;;;;;;15.27;11.32;;;;;;;8.71;100.00;101402.69;5094125;28;20052;-35
2022/10/20 03:56:48;;;;;;;13.55;10.90;;;;;;;8.76;100.00;101397.50;5093711;28;20417;-36
2022/10/20 03:59:14;;;;;;;13.17;10.93;;;;;;;8.77;100.00;101396.47;5094058;28;20031;-35
2022/10/20 04:01:44;;;;;;;12.83;10.27;;;;;;;8.80;100.00;101393.38;5094083;28;20040;-36
2022/10/20 04:04:09;;;;;;;13.90;11.35;;;;;;;8.72;100.00;101386.28;5093528;28;20066;-35
2022/10/20 04:06:35;;;;;;;14.63;11.18;;;;;;;8.70;100.00;101379.47;5093107;28;20040;-36
2022/10/20 04:09:00;;;;;;;12.87;11.47;;;;;;;8.79;100.00;101386.31;5091770;28;20468;-35
2022/10/20 04:11:25;;;;;;;14.20;11.13;;;;;;;8.81;100.00;101392.31;5093151;28;20034;-36
2022/10/20 04:13:52;;;;;;;14.52;11.45;;;;;;;8.81;100.00;101384.22;5093016;28;20472;-36
2022/10/20 04:16:17;;;;;;;13.07;10.43;;;;;;;8.85;100.00;101388.19;5093082;28;20456;-36
2022/10/20 04:18:42;;;;;;;13.77;11.00;;;;;;;8.83;100.00;101384.84;5091512;28;20024;-36
2022/10/20 04:21:08;;;;;;;17.67;10.80;;;;;;;8.85;100.00;101384.66;5092899;28;20020;-36
2022/10/20 04:23:33;;;;;;;14.02;10.52;;;;;;;8.79;100.00;101361.22;5093772;28;20523;-35
2022/10/20 04:25:59;;;;;;;13.87;10.37;;;;;;;8.87;100.00;101366.38;5092950;28;20128;-35
2022/10/20 04:28:24;;;;;;;12.50;10.77;;;;;;;8.87;100.00;101359.13;5092947;28;20039;-35
2022/10/20 04:30:49;;;;;;;16.50;11.50;;;;;;;8.88;100.00;101346.47;5092883;28;20332;-35
2022/10/20 04:33:15;;;;;;;14.13;10.93;;;;;;;8.89;100.00;101348.97;5092912;28;20417;-36
2022/10/20 04:35:41;;;;;;;16.83;11.25;;;;;;;8.89;100.00;101346.28;5092694;28;20028;-35
2022/10/20 04:38:06;;;;;;;13.88;11.02;;;;;;;8.85;100.00;101333.41;5092868;28;20549;-35
2022/10/20 04:40:31;;;;;;;12.60;10.67;;;;;;;8.85;100.00;101336.94;5092880;28;20024;-35
2022/10/20 04:43:00;;;;;;;14.20;11.63;;;;;;;8.95;100.00;101348.13;5093067;28;20024;-36
2022/10/20 04:45:25;;;;;;;13.38;10.80;;;;;;;8.95;100.00;101350.00;5092734;28;20053;-36
2022/10/20 04:47:51;;;;;;;13.85;10.30;;;;;;;8.90;100.00;101331.75;5092555;28;20115;-35
2022/10/20 04:50:16;;;;;;;13.93;11.50;;;;;;;8.99;100.00;101326.97;5092540;28;20060;-36
2022/10/20 04:52:42;;;;;;;16.30;11.53;;;;;;;8.92;100.00;101326.97;5092380;28;20464;-36
2022/10/20 04:55:07;;;;;;;13.30;11.33;;;;;;;9.00;100.00;101331.34;5092634;28;20024;-36
2022/10/20 04:57:33;;;;;;;13.32;10.95;;;;;;;9.01;100.00;101320.31;5092578;28;20086;-36
2022/10/20 04:59:58;;;;;;;13.83;11.83;;;;;;;8.95;100.00;101296.06;5092561;28;20173;-35
2022/10/20 05:02:23;;;;;;;13.80;11.13;;;;;;;9.03;100.00;101302.06;5093400;28;20028;-35
2022/10/20 05:04:49;;;;;;;13.27;11.10;;;;;;;9.04;100.00;101311.00;5092961;28;20379;-36
2022/10/20 05:07:14;;;;;;;15.45;11.48;;;;;;;9.04;100.00;101302.91;5092277;28;20544;-36
2022/10/20 05:09:40;;;;;;;15.07;11.38;;;;;;;9.05;100.00;101301.03;5092544;28;20031;-36
2022/10/20 05:12:05;;;;;;;15.67;11.50;;;;;;;9.06;100.00;101300.00;5092772;28;20414;-36
2022/10/20 05:14:30;;;;;;;14.93;12.13;;;;;;;9.00;100.00;101288.16;5092530;28;20024;-36
2022/10/20 05:16:56;;;;;;;12.80;11.47;;;;;;;9.07;100.00;101294.38;5092972;28;20027;-36
2022/10/20 05:19:22;;;;;;;16.33;10.50;;;;;;;9.12;100.00;101315.31;5092542;28;20519;-36
2022/10/20 05:21:47;;;;;;;14.47;11.20;;;;;;;9.11;100.00;101325.28;5092697;28;20020;-36
2022/10/20 05:24:15;;;;;;;12.50;10.77;;;;;;;9.15;100.00;101331.94;5092157;28;20259;-36
2022/10/20 05:26:41;;;;;;;18.10;12.23;;;;;;;9.13;100.00;101301.66;5092232;28;20043;-35
2022/10/20 05:29:09;;;;;;;14.60;12.80;;;;;;;9.10;100.00;101276.94;5092568;28;20384;-36
2022/10/20 05:31:42;;;;;;;17.80;12.23;;;;;;;9.10;100.00;101276.94;5092080;28;20111;-35
2022/10/20 05:34:08;;;;;;;13.60;10.95;;;;;;;9.10;100.00;101275.06;5092558;28;20032;-36
2022/10/20 05:36:34;;;;;;;18.50;11.98;;;;;;;9.12;100.00;101302.66;5092438;28;20474;-35
2022/10/20 05:38:59;;;;;;;13.60;10.67;;;;;;;9.14;100.00;101302.47;5094551;28;20020;-36
2022/10/20 05:41:27;;;;;;;14.40;10.87;;;;;;;9.14;100.00;101292.50;5096093;28;20024;-35
2022/10/20 05:43:58;;;;;;;14.07;9.93;;;;;;;9.19;100.00;101295.41;5096076;28;20047;-35
2022/10/20 05:46:25;;;;;;;14.93;10.32;;;;;;;9.15;100.00;101298.72;5096316;28;20059;-34
2022/10/20 05:48:54;;;;;;;14.35;10.93;;;;;;;9.19;100.00;101291.88;5096365;28;20032;-35
2022/10/20 05:51:22;;;;;;;14.98;11.38;;;;;;;9.13;100.00;101277.38;5095849;28;20024;-36
2022/10/20 05:53:47;;;;;;;14.32;12.45;;;;;;;9.21;100.00;101281.69;5096423;28;20032;-35
2022/10/20 05:56:15;;;;;;;15.07;12.30;;;;;;;9.22;100.00;101284.19;5095561;28;20026;-35
2022/10/20 05:58:42;;;;;;;15.43;12.25;;;;;;;9.24;100.00;101276.72;5096192;28;20530;-35
2022/10/20 06:01:18;;;;;;;16.13;12.40;;;;;;;9.28;100.00;101288.75;5095728;28;20095;-35
2022/10/20 06:03:55;;;;;;;17.05;12.35;;;;;;;9.32;100.00;101291.84;5095961;28;20352;-35
2022/10/20 06:06:24;;;;;;;13.65;11.75;;;;;;;9.37;100.00;101291.19;5095932;28;20028;-35
2022/10/20 06:08:50;;;;;;;18.20;12.07;;;;;;;9.39;100.00;101295.34;5095749;28;20024;-35
2022/10/20 06:11:17;;;;;;;16.60;13.38;;;;;;;9.37;100.00;101291.19;5095123;28;20489;-35
2022/10/20 06:13:42;;;;;;;13.60;12.15;;;;;;;9.46;100.00;101298.84;5095104;28;20048;-35
2022/10/20 06:16:10;;;;;;;15.10;12.68;;;;;;;9.49;100.00;101294.91;5093017;28;20074;-35
2022/10/20 06:18:38;;;;;;;16.02;13.18;;;;;;;9.53;100.00;101285.34;5093959;28;20036;-36
2022/10/20 06:21:06;;;;;;;20.08;12.80;;;;;;;9.51;100.00;101282.84;5094923;28;20480;-35
2022/10/20 06:23:32;;;;;;;15.52;12.18;;;;;;;9.58;100.00;101276.59;5094251;28;20044;-36
2022/10/20 06:26:06;;;;;;;14.60;12.27;;;;;;;9.62;100.00;101283.25;5095158;28;20035;-36
2022/10/20 06:28:33;;;;;;;20.65;12.50;;;;;;;9.65;100.00;101277.41;5095389;28;20070;-36
2022/10/20 06:30:59;;;;;;;15.05;11.70;;;;;;;9.72;100.00;101280.91;5095087;28;20028;-36
2022/10/20 06:33:25;;;;;;;;;;;;;;;9.75;100.00;101296.66;5095155;28;20020;-36
2022/10/20 06:35:50;;;;;;;13.80;12.02;;;;;;;9.76;100.00;101306.41;5094842;28;20280;-36
2022/10/20 06:38:16;;;;;;;16.47;12.33;;;;;;;9.80;100.00;101307.66;5094894;28;20085;-35
2022/10/20 06:40:41;;;;;;;14.60;11.83;;;;;;;9.75;100.00;101278.59;5094587;28;20028;-36
2022/10/20 06:43:06;;;;;;;14.13;11.03;;;;;;;9.84;100.00;101284.56;5095467;28;20032;-36
2022/10/20 06:45:31;;;;;;;16.30;11.40;;;;;;;9.87;100.00;101286.03;5095029;28;20149;-35
2022/10/20 06:47:57;;;;;;;16.33;11.37;;;;;;;9.86;100.00;101269.00;5095660;28;20103;-36
2022/10/20 06:50:22;;;;;;;16.27;11.33;;;;;;;9.92;100.00;101270.00;5093861;28;20021;-35
2022/10/20 06:52:47;;;;;;;16.10;11.63;;;;;;;9.77;100.00;101236.00;5095136;28;20031;-34
2022/10/20 06:55:13;;;;;;;14.33;11.70;;;;;;;9.91;100.00;101260.25;5094825;28;20328;-34
2022/10/20 06:57:38;;;;;;;12.90;11.37;;;;;;;9.99;100.00;101270.78;5094627;28;20093;-35
2022/10/20 07:00:04;;;;;;;13.73;11.17;;;;;;;10.02;100.00;101263.09;5094664;28;20093;-35
2022/10/20 07:02:30;;;;;;;12.63;10.90;;;;;;;10.04;100.00;101257.44;5094791;28;20035;-35
2022/10/20 07:04:55;;;;;;;13.20;11.03;;;;;;;10.05;100.00;101246.44;5094346;28;20028;-35
2022/10/20 07:07:20;;;;;;;16.47;11.70;;;;;;;10.10;100.00;101253.03;5094794;28;20455;-35
2022/10/20 07:09:46;;;;;;;15.63;11.50;;;;;;;10.12;100.00;101246.38;5094225;28;20079;-35
2022/10/20 07:12:11;;;;;;;16.50;11.73;;;;;;;10.17;100.00;101251.16;5093969;28;20028;-35
2022/10/20 07:14:36;;;;;;;12.27;10.97;;;;;;;10.17;100.00;101243.03;5094170;28;20024;-35
2022/10/20 07:17:03;;;;;;;14.07;10.67;;;;;;;10.20;100.00;101250.69;5093980;28;20285;-35
2022/10/20 07:19:29;;;;;;;12.77;10.68;;;;;;;10.24;100.00;101254.66;5094059;28;20322;-35
2022/10/20 07:21:54;;;;;;;16.67;11.07;;;;;;;10.20;100.00;101261.50;5094293;28;20134;-35
2022/10/20 07:24:19;;;;;;;12.93;10.60;;;;;;;10.24;100.00;101258.19;5093984;28;20028;-35
2022/10/20 07:26:45;;;;;;;15.23;10.77;;;;;;;10.34;100.00;101263.09;5094220;28;20024;-35
2022/10/20 07:29:11;;;;;;;15.17;11.53;;;;;;;10.35;100.00;101266.66;5093953;28;20278;-35
2022/10/20 07:31:40;;;;;;;11.80;10.45;;;;;;;10.39;100.00;101270.56;5093830;28;20024;-35
2022/10/20 07:34:07;;;;;;;12.63;11.32;;;;;;;10.43;100.00;101283.41;5093941;28;20500;-35
2022/10/20 07:36:34;;;;;;;11.98;10.48;;;;;;;10.40;100.00;101256.84;5093978;28;20024;-35
2022/10/20 07:39:00;;;;;;;12.43;10.93;;;;;;;10.41;100.00;101255.78;5093863;28;20028;-35
2022/10/20 07:41:26;;;;;;;16.77;11.73;;;;;;;10.53;100.00;101264.81;5094226;28;20118;-35
2022/10/20 07:43:52;;;;;;;;;;;;;;;10.58;100.00;101272.28;5093853;28;20067;-35
2022/10/20 07:46:18;;;;;;;11.90;10.45;;;;;;;10.61;100.00;101276.44;5093712;28;20368;-36
2022/10/20 07:48:43;;;;;;;15.32;11.65;;;;;;;10.65;100.00;101278.47;5094144;28;20036;-35
2022/10/20 07:51:29;;;;;;;13.73;10.37;;;;;;;10.70;100.00;101270.53;5093763;28;20376;-35
2022/10/20 07:54:01;;;;;;;11.18;10.07;;;;;;;10.74;100.00;101276.31;5093680;28;20023;-35
2022/10/20 07:56:28;;;;;;;13.95;10.73;;;;;;;10.78;100.00;101270.25;5093606;28;20456;-35
2022/10/20 07:58:54;;;;;;;14.20;10.93;;;;;;;10.82;100.00;101273.31;5093332;28;20024;-36
2022/10/20 08:01:20;;;;;;;12.85;10.13;;;;;;;10.88;100.00;101264.31;5092920;28;20058;-35
2022/10/20 08:03:45;;;;;;;15.30;11.02;;;;;;;10.95;100.00;101267.78;5093341;28;20032;-35
2022/10/20 08:06:10;;;;;;;14.27;10.67;;;;;;;10.96;100.00;101264.03;5093247;28;20034;-35
2022/10/20 08:08:36;;;;;;;14.23;11.00;;;;;;;11.09;100.00;101268.50;5093701;28;20016;-35
2022/10/20 08:11:02;;;;;;;13.47;10.57;;;;;;;11.14;100.00;101267.81;5093087;28;20309;-35
2022/10/20 08:13:28;;;;;;;12.57;9.98;;;;;;;11.12;100.00;101251.78;5093390;28;20028;-35
2022/10/20 08:15:53;;;;;;;14.20;10.30;;;;;;;11.25;100.00;101253.53;5093121;28;20415;-35
2022/10/20 08:18:19;;;;;;;12.20;10.43;;;;;;;11.28;100.00;101253.09;5093591;28;20028;-35
2022/10/20 08:20:44;;;;;;;17.05;10.80;;;;;;;11.31;100.00;101260.75;5093092;28;20079;-35
2022/10/20 08:23:11;;;;;;;12.27;10.20;;;;;;;11.22;100.00;101241.25;5093358;28;20028;-35
2022/10/20 08:25:36;;;;;;;11.77;10.15;;;;;;;11.37;100.00;101257.16;5093156;28;20058;-35
2022/10/20 08:28:02;;;;;;;15.90;11.75;;;;;;;11.45;100.00;101254.13;5093225;28;20039;-35
2022/10/20 08:30:27;;;;;;;14.55;10.73;;;;;;;11.53;100.00;101248.41;5092692;28;20096;-35
2022/10/20 08:32:53;;;;;;;12.03;10.67;;;;;;;11.57;100.00;101256.91;5092635;28;20125;-35
2022/10/20 08:35:20;;;;;;;11.70;10.48;;;;;;;11.59;100.00;101243.97;5093122;28;20277;-35
2022/10/20 08:37:45;;;;;;;13.50;10.85;;;;;;;11.64;100.00;101243.28;5092856;28;20031;-35
2022/10/20 08:40:15;;;;;;;15.25;10.60;;;;;;;11.68;100.00;101255.31;5092336;28;20460;-35
2022/10/20 08:42:44;;;;;;;13.23;10.45;;;;;;;11.69;100.00;101252.38;5093539;28;20294;-35
2022/10/20 08:45:21;;;;;;;11.77;10.57;;;;;;;11.74;100.00;101248.97;5092805;28;20028;-35
2022/10/20 08:47:49;;;;;;;11.55;10.30;;;;;;;11.76;100.00;101255.84;5093096;28;20028;-35
2022/10/20 08:50:17;;;;;;;11.77;10.57;;;;;;;11.77;100.00;101249.34;5092659;28;20085;-35
2022/10/20 08:52:45;;;;;;;11.90;10.57;;;;;;;11.91;100.00;101243.75;5092981;28;20066;-35
2022/10/20 08:55:27;;;;;;;13.10;10.68;;;;;;;12.01;100.00;101228.63;5092728;28;20036;-35
2022/10/20 08:58:01;;;;;;;14.35;10.77;;;;;;;12.20;100.00;101240.22;5092388;28;20044;-35
2022/10/20 09:00:29;;;;;;;14.82;10.73;;;;;;;12.34;100.00;101233.50;5093145;28;20020;-35
2022/10/20 09:02:58;;;;;;;11.95;10.75;;;;;;;12.42;100.00;101220.69;5092584;28;20377;-35
2022/10/20 09:05:27;;;;;;;14.15;10.68;;;;;;;12.50;100.00;101214.94;5092694;28;20056;-35
2022/10/20 09:07:53;;;;;;;15.57;10.80;;;;;;;12.51;100.00;101206.53;5092909;28;20036;-35
2022/10/20 09:10:37;;;;;;;15.50;11.13;;;;;;;12.62;100.00;101219.28;5092579;28;20104;-35
2022/10/20 09:13:16;;;;;;;13.02;10.35;;;;;;;12.65;100.00;101217.19;5092836;28;20028;-35
2022/10/20 09:15:41;;;;;;;12.18;9.75;;;;;;;12.61;100.00;101209.50;5095492;28;20036;-35
2022/10/20 09:18:11;;;;;;;11.93;10.73;;;;;;;12.70;100.00;101228.97;5096844;28;20487;-35
2022/10/20 09:20:43;;;;;;;14.80;10.57;;;;;;;12.66;100.00;101211.50;5095419;28;20051;-35
2022/10/20 09:23:14;;;;;;;15.48;10.80;;;;;;;12.73;100.00;101214.91;5096782;28;20065;-35
2022/10/20 09:25:42;;;;;;;11.55;9.52;;;;;;;12.74;100.00;101219.31;5096398;28;20036;-35
2022/10/20 09:28:25;;;;;;;11.38;9.55;;;;;;;12.69;100.00;101213.75;5096863;28;20038;-35
2022/10/20 09:30:52;;;;;;;10.75;9.13;;;;;;;12.72;100.00;101217.88;5096056;28;20082;-35
2022/10/20 09:33:30;;;;;;;12.20;9.88;;;;;;;12.67;100.00;101201.47;5096907;28;20024;-35
2022/10/20 09:36:26;;;;;;;14.25;9.68;;;;;;;12.75;100.00;101218.22;5096075;28;20119;-35
2022/10/20 09:38:51;;;;;;;10.82;9.70;;;;;;;12.74;100.00;101215.75;5095153;28;20040;-36
2022/10/20 09:41:23;;;;;;;9.70;8.43;;;;;;;12.71;100.00;101218.94;5096078;28;20038;-35
2022/10/20 09:43:59;;;;;;;10.60;8.90;;;;;;;12.74;100.00;101218.47;5096546;28;20028;-35
2022/10/20 09:46:29;;;;;;;12.33;9.43;;;;;;;12.75;100.00;101229.09;5095961;28;20088;-35
2022/10/20 09:48:55;;;;;;;12.65;9.25;;;;;;;12.77;100.00;101224.25;5095955;28;20254;-35
2022/10/20 09:51:22;;;;;;;;;;;;;;;12.82;100.00;101226.25;5096574;28;20528;-36
2022/10/20 09:53:52;;;;;;;12.10;9.98;;;;;;;12.74;100.00;101213.06;5096644;28;20245;-35
2022/10/20 09:56:26;;;;;;;10.40;8.70;;;;;;;12.82;100.00;101234.38;5096590;28;20044;-35
2022/10/20 09:58:52;;;;;;;11.25;9.00;;;;;;;12.73;100.00;101219.53;5096613;28;20031;-35
2022/10/20 10:01:18;;;;;;;11.52;9.13;;;;;;;12.78;100.00;101211.50;5096038;28;20440;-35
2022/10/20 10:03:45;;;;;;;11.05;9.13;;;;;;;12.79;100.00;101207.75;5095784;28;20406;-35
2022/10/20 10:06:36;;;;;;;13.13;9.38;;;;;;;12.75;100.00;101196.53;5095414;28;20533;-35
2022/10/20 10:09:03;;;;;;;11.02;8.88;;;;;;;12.77;100.00;101199.81;5095714;28;20028;-35
2022/10/20 10:11:35;;;;;;;13.63;8.95;;;;;;;12.75;100.00;101201.94;5095684;28;20032;-35
2022/10/20 10:14:02;;;;;;;13.68;9.30;;;;;;;12.74;100.00;101204.91;5095711;28;20479;-35
2022/10/20 10:16:39;;;;;;;18.92;9.60;;;;;;;12.76;100.00;101216.34;5095167;28;20486;-35
2022/10/20 10:19:05;;;;;;;12.93;9.55;;;;;;;12.73;100.00;101211.38;5095682;28;20024;-35
2022/10/20 10:21:47;;;;;;;17.63;10.15;;;;;;;12.75;100.00;101211.97;5095378;28;20020;-35
2022/10/20 10:24:28;;;;;;;12.88;10.25;;;;;;;12.70;100.00;101209.97;5095470;28;20110;-35
2022/10/20 10:26:55;;;;;;;14.18;9.98;;;;;;;12.57;100.00;101194.75;5095006;28;20479;-35
2022/10/20 10:29:32;;;;;;;15.85;10.65;;;;;;;12.61;100.00;101195.94;5095047;28;20062;-35
2022/10/20 10:32:16;;;;;;;;;;;;;;;12.70;100.00;101199.13;5095967;28;20100;-35
2022/10/20 10:34:56;;;;;;;12.73;10.20;;;;;;;12.61;100.00;101190.50;5095618;28;20281;-35
2022/10/20 10:37:21;;;;;;;13.05;11.02;;;;;;;12.65;100.00;101190.03;5095363;28;20555;-35
2022/10/20 10:39:47;;;;;;;13.57;10.18;;;;;;;12.62;100.00;101189.44;5095081;28;20066;-35
2022/10/20 10:42:28;;;;;;;13.53;11.10;;;;;;;12.63;100.00;101171.28;5095630;28;20028;-35
2022/10/20 10:45:08;;;;;;;15.48;11.18;;;;;;;12.61;100.00;101174.22;5095795;28;20040;-36
2022/10/20 10:47:52;;;;;;;14.45;11.52;;;;;;;12.61;100.00;101166.09;5095575;28;20076;-35
2022/10/20 10:50:26;;;;;;;14.77;11.80;;;;;;;12.63;100.00;101161.25;5095844;28;20123;-35
2022/10/20 10:53:05;;;;;;;17.05;12.40;;;;;;;12.57;100.00;101173.03;5095669;28;20046;-35
2022/10/20 10:55:47;;;;;;;16.30;11.70;;;;;;;12.63;100.00;101182.94;5094947;28;20028;-35
2022/10/20 10:58:29;;;;;;;15.55;11.98;;;;;;;12.61;100.00;101182.38;5094705;28;20040;-35
2022/10/20 11:00:54;;;;;;;14.57;12.48;;;;;;;12.49;100.00;101151.72;5094271;28;20149;-35
2022/10/20 11:03:35;;;;;;;14.07;12.07;;;;;;;12.59;100.00;101176.38;5094598;28;20064;-35
2022/10/20 11:06:15;;;;;;;16.10;12.45;;;;;;;12.59;100.00;101179.06;5095359;28;20034;-35
2022/10/20 11:09:09;;;;;;;21.08;12.75;;;;;;;12.60;100.00;101185.31;5093615;28;20040;-35
2022/10/20 11:11:47;;;;;;;15.70;12.75;;;;;;;12.59;100.00;101165.50;5093845;28;20036;-35
2022/10/20 11:14:24;;;;;;;15.65;12.95;;;;;;;12.59;100.00;101159.22;5095128;28;20063;-35
2022/10/20 11:17:18;;;;;;;;;;;;;;;12.62;100.00;101151.47;5095271;28;20038;-35
2022/10/20 11:20:27;;;;;;;16.33;13.23;;;;;;;12.63;100.00;101150.38;5072175;28;19912;-35